createdAt,value
2023-03-25T00:00:12.790Z,97.22
2023-03-25T00:01:15.690Z,97.02
2023-03-25T00:02:16.945Z,98.32
2023-03-25T00:03:18.676Z,98.69
2023-03-25T00:04:21.122Z,98.49
2023-03-25T00:05:25.433Z,99.21
2023-03-25T00:06:28.076Z,99.85
2023-03-25T00:07:32.304Z,99.61
2023-03-25T00:08:33.547Z,99.46
2023-03-25T00:09:35.094Z,99.88
2023-03-25T00:10:38.587Z,99.96
2023-03-25T00:11:42.456Z,100.00
2023-03-25T00:12:45.216Z,100.00
2023-03-25T00:13:46.907Z,100.00
2023-03-25T00:14:48.196Z,100.00
2023-03-25T00:15:50.484Z,100.00
2023-03-25T00:16:52.096Z,100.00
2023-03-25T00:17:53.454Z,100.00
2023-03-25T00:18:54.781Z,100.00
2023-03-25T00:19:56.263Z,100.00
2023-03-25T00:20:57.766Z,99.57
2023-03-25T00:21:59.379Z,98.85
2023-03-25T00:23:00.544Z,99.37
2023-03-25T00:24:01.767Z,99.45
2023-03-25T00:25:03.692Z,98.20
2023-03-25T00:26:05.680Z,98.01
2023-03-25T00:27:09.485Z,97.86
2023-03-25T00:28:11.785Z,97.12
2023-03-25T00:29:13.231Z,97.45
2023-03-25T00:30:15.294Z,97.37
2023-03-25T00:31:16.643Z,97.64
2023-03-25T00:32:21.220Z,98.20
2023-03-25T00:33:22.777Z,97.09
2023-03-25T00:34:24.118Z,97.46
2023-03-25T00:35:25.755Z,97.85
2023-03-25T00:36:27.092Z,97.71
2023-03-25T00:37:31.565Z,98.68
2023-03-25T00:38:33.768Z,98.51
2023-03-25T00:39:36.103Z,99.06
2023-03-25T00:40:37.831Z,98.75
2023-03-25T00:41:39.177Z,99.29
2023-03-25T00:42:40.740Z,99.59
2023-03-25T00:43:42.285Z,99.70
2023-03-25T00:44:43.840Z,100.00
2023-03-25T00:45:45.343Z,100.00
2023-03-25T00:46:47.034Z,100.00
2023-03-25T00:47:48.439Z,100.00
2023-03-25T00:48:50.474Z,100.00
2023-03-25T00:49:52.794Z,100.00
2023-03-25T00:50:54.291Z,100.00
2023-03-25T00:51:55.714Z,100.00
2023-03-25T00:52:59.375Z,100.00
2023-03-25T00:54:00.602Z,100.00
2023-03-25T00:55:02.046Z,100.00
2023-03-25T00:56:04.613Z,100.00
2023-03-25T00:57:06.085Z,100.00
2023-03-25T00:58:07.541Z,100.00
2023-03-25T00:59:09.151Z,100.00
2023-03-25T01:00:12.240Z,100.00
2023-03-25T01:01:14.836Z,100.00
2023-03-25T01:02:16.572Z,100.00
2023-03-25T01:03:18.195Z,99.77
2023-03-25T01:04:21.046Z,99.89
2023-03-25T01:05:22.483Z,100.00
2023-03-25T01:06:26.262Z,99.94
2023-03-25T01:07:28.003Z,100.00
2023-03-25T01:08:30.643Z,99.93
2023-03-25T01:09:34.992Z,100.00
2023-03-25T01:10:36.989Z,99.93
2023-03-25T01:11:39.630Z,99.50
2023-03-25T01:12:40.996Z,98.73
2023-03-25T01:13:43.639Z,98.65
2023-03-25T01:14:47.100Z,98.69
2023-03-25T01:15:49.924Z,99.33
2023-03-25T01:16:51.542Z,99.65
2023-03-25T01:17:52.879Z,99.34
2023-03-25T01:18:54.663Z,99.08
2023-03-25T01:19:56.838Z,99.06
2023-03-25T01:20:58.226Z,99.68
2023-03-25T01:21:59.672Z,99.49
2023-03-25T01:23:01.147Z,100.00
2023-03-25T01:24:07.172Z,100.00
2023-03-25T01:25:08.682Z,100.00
2023-03-25T01:26:10.379Z,100.00
2023-03-25T01:27:14.009Z,100.00
2023-03-25T01:28:15.177Z,100.00
2023-03-25T01:29:18.098Z,100.00
2023-03-25T01:30:19.941Z,100.00
2023-03-25T01:31:22.738Z,100.00
2023-03-25T01:32:24.097Z,100.00
2023-03-25T01:33:25.743Z,100.00
2023-03-25T01:34:27.240Z,100.00
2023-03-25T01:35:30.549Z,100.00
2023-03-25T01:36:32.191Z,100.00
2023-03-25T01:37:33.594Z,100.00
2023-03-25T01:38:35.913Z,100.00
2023-03-25T01:39:37.547Z,100.00
2023-03-25T01:40:38.809Z,100.00
2023-03-25T01:41:49.166Z,100.00
2023-03-25T01:42:55.823Z,100.00
2023-03-25T01:44:20.394Z,100.00
2023-03-25T01:45:23.726Z,100.00
2023-03-25T01:46:25.082Z,100.00
2023-03-25T01:47:27.107Z,100.00
2023-03-25T01:48:41.801Z,100.00
2023-03-25T01:49:44.026Z,100.00
2023-03-25T01:50:49.566Z,100.00
2023-03-25T01:51:53.436Z,100.00
2023-03-25T01:52:57.580Z,100.00
2023-03-25T01:53:59.578Z,100.00
2023-03-25T01:55:02.732Z,100.00
2023-03-25T01:56:06.111Z,100.00
2023-03-25T01:57:08.582Z,100.00
2023-03-25T01:58:16.055Z,99.85
2023-03-25T01:59:22.316Z,100.00
2023-03-25T02:00:23.600Z,99.62
2023-03-25T02:01:25.063Z,99.11
2023-03-25T02:02:26.520Z,98.63
2023-03-25T02:03:28.363Z,98.96
2023-03-25T02:04:38.821Z,99.71
2023-03-25T02:05:45.059Z,98.97
2023-03-25T02:06:49.520Z,99.46
2023-03-25T02:07:51.865Z,98.75
2023-03-25T02:08:54.329Z,98.64
2023-03-25T02:09:55.801Z,98.78
2023-03-25T02:10:59.412Z,98.66
2023-03-25T02:12:00.677Z,98.31
2023-03-25T02:13:02.753Z,98.37
2023-03-25T02:14:08.837Z,98.20
2023-03-25T02:15:13.152Z,97.96
2023-03-25T02:16:23.664Z,97.70
2023-03-25T02:17:39.945Z,97.46
2023-03-25T02:19:10.767Z,98.21
2023-03-25T02:20:24.238Z,98.12
2023-03-25T02:21:28.951Z,97.53
2023-03-25T02:22:48.760Z,97.14
2023-03-25T02:24:07.984Z,97.89
2023-03-25T02:25:20.771Z,97.61
2023-03-25T02:26:48.362Z,97.55
2023-03-25T02:28:10.185Z,97.48
2023-03-25T02:29:21.372Z,97.05
2023-03-25T02:30:42.982Z,96.81
2023-03-25T02:32:01.796Z,96.71
2023-03-25T02:33:23.399Z,97.68
2023-03-25T02:34:43.587Z,98.83
2023-03-25T02:36:02.833Z,100.00
2023-03-25T02:37:09.054Z,100.00
2023-03-25T02:38:19.838Z,100.00
2023-03-25T02:39:30.335Z,100.00
2023-03-25T02:40:36.680Z,100.00
2023-03-25T02:41:43.266Z,100.00
2023-03-25T02:42:44.723Z,100.00
2023-03-25T02:43:52.361Z,100.00
2023-03-25T02:44:59.901Z,100.00
2023-03-25T02:46:05.415Z,100.00
2023-03-25T02:47:09.344Z,100.00
2023-03-25T02:48:13.982Z,100.00
2023-03-25T02:49:21.293Z,100.00
2023-03-25T02:50:26.604Z,100.00
2023-03-25T02:51:33.016Z,100.00
2023-03-25T02:52:37.379Z,100.00
2023-03-25T02:53:39.815Z,100.00
2023-03-25T02:54:41.771Z,100.00
2023-03-25T02:55:45.506Z,100.00
2023-03-25T02:56:48.776Z,100.00
2023-03-25T02:57:55.673Z,100.00
2023-03-25T02:58:57.878Z,100.00
2023-03-25T02:59:59.746Z,100.00
2023-03-25T03:01:03.477Z,100.00
2023-03-25T03:02:07.489Z,100.00
2023-03-25T03:03:09.942Z,100.00
2023-03-25T03:04:14.612Z,100.00
2023-03-25T03:05:23.387Z,100.00
2023-03-25T03:06:24.870Z,100.00
2023-03-25T03:07:38.743Z,100.00
2023-03-25T03:08:49.081Z,100.00
2023-03-25T03:10:14.352Z,100.00
2023-03-25T03:11:34.764Z,100.00
2023-03-25T03:12:45.453Z,100.00
2023-03-25T03:14:05.094Z,100.00
2023-03-25T03:15:21.579Z,100.00
2023-03-25T03:16:33.683Z,100.00
2023-03-25T03:17:58.841Z,100.00
2023-03-25T03:19:15.687Z,100.00
2023-03-25T03:20:19.864Z,100.00
2023-03-25T03:21:24.365Z,100.00
2023-03-25T03:22:42.370Z,100.00
2023-03-25T03:23:51.400Z,100.00
2023-03-25T03:24:54.236Z,100.00
2023-03-25T03:26:21.779Z,100.00
2023-03-25T03:27:30.170Z,100.00
2023-03-25T03:28:41.117Z,100.00
2023-03-25T03:29:48.225Z,100.00
2023-03-25T03:30:53.561Z,100.00
2023-03-25T03:32:06.176Z,100.00
2023-03-25T03:33:12.268Z,100.00
2023-03-25T03:34:27.685Z,100.00
2023-03-25T03:35:34.860Z,100.00
2023-03-25T03:36:40.896Z,100.00
2023-03-25T03:37:45.916Z,100.00
2023-03-25T03:38:50.867Z,100.00
2023-03-25T03:39:54.483Z,100.00
2023-03-25T03:41:01.844Z,100.00
2023-03-25T03:42:18.819Z,100.00
2023-03-25T03:43:27.409Z,100.00
2023-03-25T03:44:34.564Z,100.00
2023-03-25T03:45:42.413Z,100.00
2023-03-25T03:46:55.150Z,100.00
2023-03-25T03:47:57.630Z,100.00
2023-03-25T03:48:59.963Z,100.00
2023-03-25T03:50:06.714Z,100.00
2023-03-25T03:51:20.120Z,100.00
2023-03-25T03:52:24.833Z,100.00
2023-03-25T03:53:34.518Z,100.00
2023-03-25T03:54:40.827Z,100.00
2023-03-25T03:55:50.119Z,100.00
2023-03-25T03:56:55.598Z,100.00
2023-03-25T03:57:59.728Z,100.00
2023-03-25T03:59:01.750Z,100.00
2023-03-25T04:00:13.229Z,100.00
2023-03-25T04:01:22.319Z,100.00
2023-03-25T04:02:41.601Z,100.00
2023-03-25T04:03:50.318Z,100.00
2023-03-25T04:04:51.818Z,100.00
2023-03-25T04:05:57.015Z,100.00
2023-03-25T04:07:03.639Z,100.00
2023-03-25T04:08:08.780Z,100.00
2023-03-25T04:09:28.837Z,100.00
2023-03-25T04:10:41.971Z,100.00
2023-03-25T04:11:46.589Z,100.00
2023-03-25T04:12:51.133Z,100.00
2023-03-25T04:13:53.805Z,100.00
2023-03-25T04:14:56.057Z,100.00
2023-03-25T04:15:58.870Z,100.00
2023-03-25T04:17:00.237Z,100.00
2023-03-25T04:18:02.088Z,100.00
2023-03-25T04:19:04.317Z,100.00
2023-03-25T04:20:05.907Z,100.00
2023-03-25T04:21:07.623Z,100.00
2023-03-25T04:22:08.823Z,100.00
2023-03-25T04:23:11.059Z,100.00
2023-03-25T04:24:12.306Z,100.00
2023-03-25T04:25:13.536Z,100.00
2023-03-25T04:26:14.756Z,100.00
2023-03-25T04:27:17.746Z,100.00
2023-03-25T04:28:19.708Z,100.00
2023-03-25T04:29:20.971Z,100.00
2023-03-25T04:30:22.480Z,100.00
2023-03-25T04:31:24.407Z,100.00
2023-03-25T04:32:25.755Z,100.00
2023-03-25T04:33:27.323Z,100.00
2023-03-25T04:34:28.845Z,100.00
2023-03-25T04:35:30.277Z,100.00
2023-03-25T04:36:31.587Z,100.00
2023-03-25T04:37:33.068Z,100.00
2023-03-25T04:38:34.494Z,100.00
2023-03-25T04:39:36.065Z,100.00
2023-03-25T04:40:37.349Z,100.00
2023-03-25T04:41:39.313Z,100.00
2023-03-25T04:42:40.837Z,100.00
2023-03-25T04:43:42.755Z,100.00
2023-03-25T04:44:44.351Z,100.00
2023-03-25T04:45:46.267Z,100.00
2023-03-25T04:46:48.227Z,100.00
2023-03-25T04:47:49.787Z,100.00
2023-03-25T04:48:51.598Z,100.00
2023-03-25T04:49:52.868Z,100.00
2023-03-25T04:50:54.087Z,100.00
2023-03-25T04:51:55.704Z,100.00
2023-03-25T04:52:57.570Z,100.00
2023-03-25T04:53:59.015Z,100.00
2023-03-25T04:55:00.604Z,100.00
2023-03-25T04:56:01.991Z,100.00
2023-03-25T04:57:04.147Z,100.00
2023-03-25T04:58:05.484Z,100.00
2023-03-25T04:59:06.895Z,100.00
2023-03-25T05:00:08.814Z,100.00
2023-03-25T05:01:24.137Z,100.00
2023-03-25T05:02:27.806Z,100.00
2023-03-25T05:03:29.250Z,100.00
2023-03-25T05:04:30.574Z,100.00
2023-03-25T05:05:32.020Z,100.00
2023-03-25T05:06:34.286Z,100.00
2023-03-25T05:07:35.545Z,100.00
2023-03-25T05:08:36.726Z,100.00
2023-03-25T05:09:38.136Z,100.00
2023-03-25T05:10:39.360Z,100.00
2023-03-25T05:11:41.308Z,100.00
2023-03-25T05:12:42.770Z,100.00
2023-03-25T05:13:44.206Z,100.00
2023-03-25T05:14:45.619Z,100.00
2023-03-25T05:15:47.554Z,100.00
2023-03-25T05:16:49.248Z,100.00
2023-03-25T05:17:50.535Z,100.00
2023-03-25T05:18:51.978Z,100.00
2023-03-25T05:19:53.437Z,100.00
2023-03-25T05:20:54.976Z,100.00
2023-03-25T05:21:58.060Z,100.00
2023-03-25T05:22:59.537Z,100.00
2023-03-25T05:24:01.046Z,100.00
2023-03-25T05:25:02.325Z,100.00
2023-03-25T05:26:04.188Z,100.00
2023-03-25T05:27:07.332Z,100.00
2023-03-25T05:28:08.990Z,100.00
2023-03-25T05:29:11.579Z,100.00
2023-03-25T05:30:12.956Z,100.00
2023-03-25T05:31:14.219Z,100.00
2023-03-25T05:32:15.655Z,100.00
2023-03-25T05:33:17.815Z,100.00
2023-03-25T05:34:22.119Z,100.00
2023-03-25T05:35:23.501Z,100.00
2023-03-25T05:36:25.216Z,100.00
2023-03-25T05:37:26.952Z,100.00
2023-03-25T05:38:28.994Z,100.00
2023-03-25T05:39:30.483Z,100.00
2023-03-25T05:40:31.796Z,100.00
2023-03-25T05:41:33.319Z,100.00
2023-03-25T05:42:34.898Z,100.00
2023-03-25T05:43:39.267Z,100.00
2023-03-25T05:44:41.030Z,100.00
2023-03-25T05:45:43.008Z,100.00
2023-03-25T05:46:44.485Z,100.00
2023-03-25T05:47:47.289Z,100.00
2023-03-25T05:48:51.018Z,100.00
2023-03-25T05:49:53.159Z,100.00
2023-03-25T05:50:54.684Z,100.00
2023-03-25T05:51:56.003Z,100.00
2023-03-25T05:52:58.251Z,100.00
2023-03-25T05:54:00.250Z,100.00
2023-03-25T05:55:02.949Z,100.00
2023-03-25T05:56:04.801Z,100.00
2023-03-25T05:57:06.157Z,100.00
2023-03-25T05:58:07.631Z,100.00
2023-03-25T05:59:08.904Z,100.00
2023-03-25T06:00:10.903Z,100.00
2023-03-25T06:01:25.841Z,100.00
2023-03-25T06:02:34.440Z,100.00
2023-03-25T06:03:35.846Z,100.00
2023-03-25T06:04:37.716Z,100.00
2023-03-25T06:05:39.789Z,100.00
2023-03-25T06:06:41.073Z,100.00
2023-03-25T06:07:43.360Z,100.00
2023-03-25T06:08:48.949Z,100.00
2023-03-25T06:09:51.483Z,100.00
2023-03-25T06:10:54.863Z,100.00
2023-03-25T06:11:56.083Z,100.00
2023-03-25T06:12:58.101Z,100.00
2023-03-25T06:14:00.821Z,100.00
2023-03-25T06:15:06.598Z,100.00
2023-03-25T06:16:08.641Z,100.00
2023-03-25T06:17:09.947Z,100.00
2023-03-25T06:18:11.294Z,100.00
2023-03-25T06:19:13.014Z,100.00
2023-03-25T06:20:15.071Z,100.00
2023-03-25T06:21:17.726Z,100.00
2023-03-25T06:22:19.396Z,99.65
2023-03-25T06:23:20.818Z,100.00
2023-03-25T06:24:23.633Z,98.78
2023-03-25T06:25:25.093Z,99.37
2023-03-25T06:26:26.544Z,98.26
2023-03-25T06:27:28.116Z,97.05
2023-03-25T06:28:29.396Z,97.72
2023-03-25T06:29:30.751Z,97.64
2023-03-25T06:30:32.012Z,97.97
2023-03-25T06:31:33.705Z,97.95
2023-03-25T06:32:35.835Z,97.50
2023-03-25T06:33:42.368Z,97.19
2023-03-25T06:34:45.142Z,96.79
2023-03-25T06:35:47.993Z,96.49
2023-03-25T06:36:49.449Z,95.59
2023-03-25T06:37:51.764Z,95.24
2023-03-25T06:39:04.521Z,95.84
2023-03-25T06:40:06.434Z,94.76
2023-03-25T06:41:08.793Z,94.95
2023-03-25T06:42:10.089Z,94.96
2023-03-25T06:43:25.998Z,94.27
2023-03-25T06:44:43.466Z,94.53
2023-03-25T06:46:04.237Z,94.52
2023-03-25T06:47:24.538Z,95.17
2023-03-25T06:48:26.879Z,96.13
2023-03-25T06:49:28.176Z,95.63
2023-03-25T06:50:31.277Z,94.32
2023-03-25T06:51:32.782Z,94.49
2023-03-25T06:52:34.206Z,93.74
2023-03-25T06:53:35.601Z,93.64
2023-03-25T06:54:37.344Z,94.02
2023-03-25T06:55:38.808Z,91.64
2023-03-25T06:56:40.200Z,91.00
2023-03-25T06:57:42.983Z,90.87
2023-03-25T06:58:44.242Z,91.23
2023-03-25T06:59:45.516Z,91.07
2023-03-25T07:00:47.002Z,91.47
2023-03-25T07:01:48.285Z,91.59
2023-03-25T07:02:49.892Z,92.47
2023-03-25T07:03:51.198Z,91.84
2023-03-25T07:04:52.475Z,91.64
2023-03-25T07:05:54.846Z,90.69
2023-03-25T07:06:57.751Z,89.63
2023-03-25T07:07:59.311Z,89.56
2023-03-25T07:09:00.564Z,88.61
2023-03-25T07:10:01.852Z,88.13
2023-03-25T07:11:04.704Z,89.55
2023-03-25T07:12:08.474Z,89.14
2023-03-25T07:13:10.435Z,87.66
2023-03-25T07:14:11.683Z,88.40
2023-03-25T07:15:13.032Z,87.62
2023-03-25T07:16:16.158Z,86.95
2023-03-25T07:17:17.505Z,87.64
2023-03-25T07:18:18.785Z,87.48
2023-03-25T07:19:20.206Z,86.89
2023-03-25T07:20:22.149Z,86.85
2023-03-25T07:21:25.540Z,87.26
2023-03-25T07:22:26.859Z,87.69
2023-03-25T07:23:28.202Z,86.33
2023-03-25T07:24:29.595Z,85.17
2023-03-25T07:25:31.061Z,86.15
2023-03-25T07:26:32.457Z,86.47
2023-03-25T07:27:33.747Z,86.21
2023-03-25T07:28:41.105Z,86.44
2023-03-25T07:29:42.399Z,86.83
2023-03-25T07:30:43.765Z,86.99
2023-03-25T07:31:44.996Z,88.37
2023-03-25T07:32:46.308Z,88.51
2023-03-25T07:33:47.869Z,87.96
2023-03-25T07:34:49.113Z,88.08
2023-03-25T07:35:50.587Z,86.83
2023-03-25T07:36:52.224Z,86.93
2023-03-25T07:37:55.733Z,86.67
2023-03-25T07:38:57.209Z,86.74
2023-03-25T07:39:58.745Z,84.64
2023-03-25T07:41:00.114Z,85.51
2023-03-25T07:42:02.174Z,84.78
2023-03-25T07:43:17.703Z,82.84
2023-03-25T07:44:28.397Z,82.81
2023-03-25T07:45:29.683Z,83.86
2023-03-25T07:46:31.417Z,83.37
2023-03-25T07:47:32.990Z,83.66
2023-03-25T07:48:37.085Z,82.96
2023-03-25T07:49:38.414Z,82.41
2023-03-25T07:50:40.382Z,82.44
2023-03-25T07:51:41.818Z,81.74
2023-03-25T07:52:43.213Z,82.29
2023-03-25T07:53:44.486Z,80.94
2023-03-25T07:54:45.936Z,80.28
2023-03-25T07:55:47.207Z,80.70
2023-03-25T07:56:48.464Z,81.48
2023-03-25T07:57:49.725Z,82.07
2023-03-25T07:58:51.168Z,81.84
2023-03-25T07:59:53.640Z,81.64
2023-03-25T08:00:56.882Z,82.25
2023-03-25T08:01:58.283Z,82.20
2023-03-25T08:02:59.670Z,82.50
2023-03-25T08:04:01.142Z,81.83
2023-03-25T08:05:04.565Z,82.12
2023-03-25T08:06:07.376Z,83.04
2023-03-25T08:07:08.678Z,82.46
2023-03-25T08:08:10.132Z,82.63
2023-03-25T08:09:11.307Z,83.42
2023-03-25T08:10:12.669Z,83.49
2023-03-25T08:11:13.955Z,84.06
2023-03-25T08:12:15.223Z,82.75
2023-03-25T08:13:16.461Z,82.50
2023-03-25T08:14:17.918Z,82.24
2023-03-25T08:15:19.288Z,81.99
2023-03-25T08:16:20.682Z,81.58
2023-03-25T08:17:23.162Z,81.70
2023-03-25T08:18:25.110Z,82.36
2023-03-25T08:19:26.468Z,80.60
2023-03-25T08:20:27.765Z,80.91
2023-03-25T08:21:29.000Z,81.58
2023-03-25T08:22:30.411Z,81.45
2023-03-25T08:23:31.807Z,82.40
2023-03-25T08:24:33.367Z,81.60
2023-03-25T08:25:34.670Z,81.20
2023-03-25T08:26:36.006Z,80.62
2023-03-25T08:27:37.241Z,80.26
2023-03-25T08:28:38.780Z,80.17
2023-03-25T08:29:40.103Z,79.38
2023-03-25T08:30:41.370Z,78.34
2023-03-25T08:31:43.062Z,77.64
2023-03-25T08:32:44.329Z,76.53
2023-03-25T08:33:45.787Z,76.52
2023-03-25T08:34:47.274Z,76.54
2023-03-25T08:35:48.930Z,75.95
2023-03-25T08:36:50.439Z,75.99
2023-03-25T08:37:52.084Z,76.04
2023-03-25T08:38:53.480Z,75.14
2023-03-25T08:39:54.659Z,75.02
2023-03-25T08:40:55.923Z,74.18
2023-03-25T08:41:57.715Z,74.76
2023-03-25T08:42:59.007Z,74.87
2023-03-25T08:44:00.532Z,74.17
2023-03-25T08:45:01.851Z,72.61
2023-03-25T08:46:03.331Z,72.23
2023-03-25T08:47:05.063Z,71.67
2023-03-25T08:48:06.724Z,70.50
2023-03-25T08:49:07.976Z,71.11
2023-03-25T08:50:09.343Z,71.92
2023-03-25T08:51:11.253Z,73.67
2023-03-25T08:52:12.559Z,74.88
2023-03-25T08:53:14.021Z,75.75
2023-03-25T08:54:15.278Z,77.23
2023-03-25T08:55:17.898Z,77.59
2023-03-25T08:56:19.265Z,76.88
2023-03-25T08:57:20.572Z,79.24
2023-03-25T08:58:22.034Z,78.78
2023-03-25T08:59:23.257Z,79.42
2023-03-25T09:00:24.591Z,82.41
2023-03-25T09:01:26.067Z,83.50
2023-03-25T09:02:28.017Z,84.94
2023-03-25T09:03:29.828Z,85.91
2023-03-25T09:04:31.278Z,86.13
2023-03-25T09:05:32.660Z,85.58
2023-03-25T09:06:48.051Z,87.20
2023-03-25T09:07:55.432Z,87.13
2023-03-25T09:08:56.692Z,87.09
2023-03-25T09:09:58.035Z,88.24
2023-03-25T09:10:59.647Z,90.42
2023-03-25T09:12:00.895Z,90.14
2023-03-25T09:13:02.231Z,89.72
2023-03-25T09:14:04.125Z,90.65
2023-03-25T09:15:05.677Z,92.57
2023-03-25T09:16:07.575Z,90.76
2023-03-25T09:17:08.811Z,90.48
2023-03-25T09:18:10.222Z,90.35
2023-03-25T09:19:11.683Z,89.26
2023-03-25T09:20:12.970Z,89.41
2023-03-25T09:21:14.403Z,89.95
2023-03-25T09:22:15.722Z,87.19
2023-03-25T09:23:17.406Z,86.55
2023-03-25T09:24:18.731Z,86.33
2023-03-25T09:25:20.027Z,86.25
2023-03-25T09:26:21.275Z,86.48
2023-03-25T09:27:23.547Z,86.25
2023-03-25T09:28:24.942Z,84.96
2023-03-25T09:29:26.229Z,84.98
2023-03-25T09:30:27.478Z,84.62
2023-03-25T09:31:29.018Z,85.78
2023-03-25T09:32:30.901Z,84.74
2023-03-25T09:33:32.384Z,84.28
2023-03-25T09:34:33.739Z,83.07
2023-03-25T09:35:36.055Z,83.19
2023-03-25T09:36:37.328Z,83.86
2023-03-25T09:37:38.795Z,83.33
2023-03-25T09:38:40.234Z,84.36
2023-03-25T09:39:41.522Z,84.43
2023-03-25T09:40:43.667Z,83.58
2023-03-25T09:42:08.135Z,82.46
2023-03-25T09:43:32.744Z,81.47
2023-03-25T09:44:49.365Z,81.58
2023-03-25T09:45:51.737Z,79.61
2023-03-25T09:46:53.894Z,81.40
2023-03-25T09:48:15.385Z,81.25
2023-03-25T09:49:20.438Z,81.50
2023-03-25T09:50:22.006Z,80.61
2023-03-25T09:51:25.626Z,80.54
2023-03-25T09:52:30.013Z,81.28
2023-03-25T09:53:35.490Z,81.27
2023-03-25T09:54:38.320Z,81.46
2023-03-25T09:55:44.982Z,82.56
2023-03-25T09:56:47.025Z,81.69
2023-03-25T09:57:51.210Z,81.25
2023-03-25T09:58:54.568Z,81.82
2023-03-25T09:59:56.754Z,81.35
2023-03-25T10:01:12.059Z,80.85
2023-03-25T10:02:13.377Z,81.46
2023-03-25T10:03:19.779Z,80.87
2023-03-25T10:04:39.812Z,81.41
2023-03-25T10:05:50.566Z,81.47
2023-03-25T10:06:53.180Z,81.29
2023-03-25T10:08:12.251Z,81.96
2023-03-25T10:09:34.668Z,81.94
2023-03-25T10:10:36.240Z,82.57
2023-03-25T10:12:03.671Z,81.25
2023-03-25T10:13:08.981Z,81.54
2023-03-25T10:14:25.686Z,80.88
2023-03-25T10:15:26.953Z,81.93
2023-03-25T10:16:45.114Z,83.83
2023-03-25T10:18:05.450Z,85.81
2023-03-25T10:19:13.359Z,86.39
2023-03-25T10:20:21.902Z,86.01
2023-03-25T10:21:26.181Z,87.43
2023-03-25T10:22:47.949Z,88.40
2023-03-25T10:23:55.444Z,90.38
2023-03-25T10:25:02.205Z,92.03
2023-03-25T10:26:07.833Z,92.71
2023-03-25T10:27:10.268Z,92.94
2023-03-25T10:28:16.601Z,91.06
2023-03-25T10:29:25.685Z,91.19
2023-03-25T10:30:32.416Z,92.64
2023-03-25T10:31:39.577Z,92.19
2023-03-25T10:32:46.749Z,90.18
2023-03-25T10:33:51.401Z,89.94
2023-03-25T10:34:52.688Z,91.46
2023-03-25T10:35:55.290Z,93.05
2023-03-25T10:36:58.491Z,93.25
2023-03-25T10:38:08.725Z,93.76
2023-03-25T10:39:17.547Z,93.71
2023-03-25T10:40:21.405Z,95.14
2023-03-25T10:41:23.178Z,95.17
2023-03-25T10:42:31.967Z,95.86
2023-03-25T10:43:38.288Z,95.55
2023-03-25T10:44:39.709Z,95.73
2023-03-25T10:45:42.812Z,96.68
2023-03-25T10:46:46.504Z,97.16
2023-03-25T10:47:48.440Z,98.82
2023-03-25T10:48:51.794Z,99.63
2023-03-25T10:49:54.286Z,100.00
2023-03-25T10:51:02.393Z,100.00
2023-03-25T10:52:03.703Z,100.00
2023-03-25T10:53:07.106Z,100.00
2023-03-25T10:54:10.971Z,100.00
2023-03-25T10:55:22.463Z,100.00
2023-03-25T10:56:29.544Z,100.00
2023-03-25T10:57:31.052Z,100.00
2023-03-25T10:58:34.211Z,100.00
2023-03-25T10:59:37.547Z,100.00
2023-03-25T11:00:39.781Z,100.00
2023-03-25T11:01:41.884Z,100.00
2023-03-25T11:02:45.845Z,100.00
2023-03-25T11:03:49.977Z,100.00
2023-03-25T11:04:54.736Z,100.00
2023-03-25T11:05:56.697Z,100.00
2023-03-25T11:06:59.315Z,100.00
2023-03-25T11:08:08.748Z,100.00
2023-03-25T11:09:17.718Z,100.00
2023-03-25T11:10:19.059Z,99.80
2023-03-25T11:11:21.287Z,100.00
2023-03-25T11:12:33.298Z,100.00
2023-03-25T11:13:43.847Z,100.00
2023-03-25T11:14:45.267Z,100.00
2023-03-25T11:15:47.500Z,100.00
2023-03-25T11:16:52.451Z,100.00
2023-03-25T11:18:02.056Z,98.86
2023-03-25T11:19:05.304Z,98.29
2023-03-25T11:20:07.355Z,92.80
2023-03-25T11:21:13.691Z,92.99
2023-03-25T11:22:28.536Z,86.94
2023-03-25T11:23:32.876Z,81.66
2023-03-25T11:24:35.160Z,81.01
2023-03-25T11:25:37.819Z,79.86
2023-03-25T11:26:40.580Z,80.93
2023-03-25T11:27:49.819Z,82.01
2023-03-25T11:28:55.433Z,80.50
2023-03-25T11:30:01.465Z,78.43
2023-03-25T11:31:07.121Z,75.88
2023-03-25T11:32:13.721Z,76.77
2023-03-25T11:33:16.502Z,76.85
2023-03-25T11:34:19.852Z,77.81
2023-03-25T11:35:25.312Z,74.13
2023-03-25T11:36:30.493Z,73.66
2023-03-25T11:37:37.027Z,72.91
2023-03-25T11:38:39.150Z,72.43
2023-03-25T11:39:41.222Z,74.14
2023-03-25T11:40:56.355Z,71.69
2023-03-25T11:41:58.050Z,74.44
2023-03-25T11:43:01.527Z,73.50
2023-03-25T11:44:05.143Z,74.67
2023-03-25T11:45:06.846Z,75.11
2023-03-25T11:46:09.755Z,73.20
2023-03-25T11:47:11.513Z,70.12
2023-03-25T11:48:17.797Z,71.26
2023-03-25T11:49:21.091Z,68.82
2023-03-25T11:50:24.444Z,71.03
2023-03-25T11:51:28.671Z,71.56
2023-03-25T11:52:56.151Z,69.54
2023-03-25T11:53:59.641Z,71.50
2023-03-25T11:55:02.327Z,71.56
2023-03-25T11:56:06.209Z,72.01
2023-03-25T11:57:12.412Z,70.53
2023-03-25T11:58:19.119Z,72.54
2023-03-25T11:59:24.822Z,71.52
2023-03-25T12:00:37.149Z,73.02
2023-03-25T12:01:44.093Z,71.88
2023-03-25T12:02:45.584Z,72.98
2023-03-25T12:03:47.196Z,71.15
2023-03-25T12:05:00.860Z,72.59
2023-03-25T12:06:05.552Z,71.40
2023-03-25T12:07:08.409Z,70.83
2023-03-25T12:08:11.502Z,70.82
2023-03-25T12:09:12.787Z,71.97
2023-03-25T12:10:17.307Z,71.78
2023-03-25T12:11:29.122Z,71.63
2023-03-25T12:12:37.583Z,70.33
2023-03-25T12:14:03.039Z,70.64
2023-03-25T12:15:13.353Z,71.44
2023-03-25T12:16:21.073Z,70.37
2023-03-25T12:17:38.218Z,72.23
2023-03-25T12:18:39.550Z,69.33
2023-03-25T12:19:41.093Z,66.78
2023-03-25T12:20:48.188Z,67.49
2023-03-25T12:22:06.135Z,67.06
2023-03-25T12:23:16.864Z,67.89
2023-03-25T12:24:39.543Z,68.88
2023-03-25T12:25:49.134Z,69.04
2023-03-25T12:27:08.632Z,69.45
2023-03-25T12:28:12.806Z,68.53
2023-03-25T12:29:30.430Z,68.06
2023-03-25T12:30:50.834Z,67.74
2023-03-25T12:32:05.183Z,66.89
2023-03-25T12:33:06.624Z,67.32
2023-03-25T12:34:14.073Z,66.83
2023-03-25T12:35:21.915Z,66.41
2023-03-25T12:36:23.232Z,65.41
2023-03-25T12:37:36.523Z,65.37
2023-03-25T12:39:01.739Z,68.71
2023-03-25T12:40:19.025Z,67.77
2023-03-25T12:41:20.288Z,68.20
2023-03-25T12:42:38.574Z,68.73
2023-03-25T12:43:39.807Z,70.56
2023-03-25T12:44:47.390Z,70.72
2023-03-25T12:46:08.297Z,72.75
2023-03-25T12:47:23.188Z,76.00
2023-03-25T12:48:43.197Z,77.76
2023-03-25T12:49:47.424Z,79.07
2023-03-25T12:51:09.266Z,78.38
2023-03-25T12:52:22.345Z,76.27
2023-03-25T12:53:33.718Z,75.64
2023-03-25T12:54:49.878Z,75.27
2023-03-25T12:56:15.509Z,76.15
2023-03-25T12:57:35.456Z,79.00
2023-03-25T12:58:45.159Z,76.19
2023-03-25T12:59:46.419Z,75.86
2023-03-25T13:01:06.239Z,74.46
2023-03-25T13:02:12.951Z,74.92
2023-03-25T13:03:27.407Z,75.94
2023-03-25T13:04:47.552Z,74.72
2023-03-25T13:05:53.083Z,75.03
2023-03-25T13:07:09.167Z,76.35
2023-03-25T13:08:14.928Z,73.85
2023-03-25T13:09:26.160Z,73.85
2023-03-25T13:10:34.070Z,74.39
2023-03-25T13:11:41.432Z,72.52
2023-03-25T13:12:45.911Z,73.70
2023-03-25T13:13:53.507Z,74.29
2023-03-25T13:14:57.946Z,74.25
2023-03-25T13:16:05.412Z,71.36
2023-03-25T13:17:11.063Z,70.25
2023-03-25T13:18:21.595Z,69.69
2023-03-25T13:19:28.618Z,69.97
2023-03-25T13:20:32.211Z,70.64
2023-03-25T13:21:36.590Z,70.86
2023-03-25T13:22:40.242Z,69.40
2023-03-25T13:23:43.369Z,69.90
2023-03-25T13:25:04.910Z,69.43
2023-03-25T13:26:10.767Z,69.12
2023-03-25T13:27:13.413Z,69.80
2023-03-25T13:28:17.318Z,68.63
2023-03-25T13:29:30.845Z,67.24
2023-03-25T13:30:38.200Z,68.21
2023-03-25T13:31:40.919Z,68.08
2023-03-25T13:32:44.992Z,66.43
2023-03-25T13:34:04.090Z,65.62
2023-03-25T13:35:15.077Z,66.23
2023-03-25T13:36:36.404Z,67.08
2023-03-25T13:37:43.368Z,68.29
2023-03-25T13:38:55.962Z,68.82
2023-03-25T13:40:16.010Z,67.14
2023-03-25T13:41:27.666Z,65.99
2023-03-25T13:42:35.670Z,64.69
2023-03-25T13:44:05.882Z,65.69
2023-03-25T13:45:16.296Z,66.59
2023-03-25T13:46:31.553Z,64.40
2023-03-25T13:47:39.290Z,62.27